createdAt,value
2018-03-21T00:01:50.402Z,95606.02
2018-03-21T00:04:23.659Z,95605.79
2018-03-21T00:06:57.721Z,95604.13
2018-03-21T00:09:30.993Z,95608.17
2018-03-21T00:12:04.269Z,95610.72
2018-03-21T00:14:37.550Z,95610.25
2018-03-21T01:48:18.438Z,95623.41
2018-03-21T01:50:51.705Z,95625.66
2018-03-21T01:53:24.984Z,95619.79
2018-03-21T01:55:58.279Z,95622.47
2018-03-21T01:58:31.558Z,95620.98
2018-03-21T03:32:08.628Z,95636.37
2018-03-21T03:34:41.914Z,95640.34
2018-03-21T03:37:15.177Z,95637.32
2018-03-21T03:39:48.469Z,95640.83
2018-03-21T03:42:22.502Z,95639.75
2018-03-21T03:44:55.777Z,95639.16
2018-03-21T04:46:05.234Z,95677.02
2018-03-21T04:48:38.497Z,95672.64
2018-03-21T04:51:12.561Z,95681.30
2018-03-21T04:53:45.822Z,95680.17
2018-03-21T04:56:19.126Z,95684.05
2018-03-21T04:58:52.394Z,95681.98
2018-03-21T05:30:53.614Z,95728.89
2018-03-21T05:33:26.890Z,95727.70
2018-03-21T05:36:00.162Z,95736.24
2018-03-21T05:38:33.463Z,95740.94
2018-03-21T05:41:06.732Z,95738.63
2018-03-21T05:43:40.028Z,95743.07
2018-03-21T05:46:13.294Z,95742.23
2018-03-21T05:48:46.578Z,95750.41
2018-03-21T05:51:20.642Z,95746.91
2018-03-21T05:53:53.901Z,95751.23
2018-03-21T05:56:27.962Z,95755.34
2018-03-21T05:59:01.228Z,95764.34
2018-03-21T06:01:34.522Z,95763.67
2018-03-21T06:04:07.779Z,95767.89
2018-03-21T06:06:41.141Z,95775.83
2018-03-21T06:09:14.430Z,95780.52
2018-03-21T06:11:47.694Z,95778.69
2018-03-21T06:14:20.984Z,95781.85
2018-03-21T06:16:54.255Z,95792.09
2018-03-21T06:19:28.325Z,95796.15
2018-03-21T06:22:01.606Z,95794.06
2018-03-21T06:24:34.861Z,95791.46
2018-03-21T06:27:08.905Z,95804.75
2018-03-21T06:29:42.166Z,95809.09
2018-03-21T06:32:16.220Z,95816.08
2018-03-21T06:34:49.505Z,95822.13
2018-03-21T06:37:22.781Z,95829.38
2018-03-21T06:39:56.080Z,95817.14
2018-03-21T06:42:29.340Z,95830.96
2018-03-21T06:45:02.617Z,95829.48
2018-03-21T06:47:35.869Z,95836.12
2018-03-21T06:50:09.151Z,95835.83
2018-03-21T06:52:42.412Z,95831.02
2018-03-21T06:55:15.704Z,95836.43
2018-03-21T06:57:48.957Z,95840.15
2018-03-21T07:00:22.246Z,95837.34
2018-03-21T07:02:55.601Z,95846.06
2018-03-21T07:05:29.625Z,95851.42
2018-03-21T07:08:03.686Z,95853.56
2018-03-21T07:10:36.938Z,95856.42
2018-03-21T07:13:10.226Z,95862.31
2018-03-21T07:16:01.906Z,95861.20
2018-03-21T07:18:35.191Z,95853.17
2018-03-21T07:21:08.443Z,95862.37
2018-03-21T07:23:41.713Z,95868.51
2018-03-21T07:26:14.984Z,95869.59
2018-03-21T07:28:48.260Z,95868.28
2018-03-21T08:00:56.915Z,95902.95
2018-03-21T08:03:30.173Z,95907.28
2018-03-21T08:06:03.470Z,95915.27
2018-03-21T08:08:36.732Z,95915.13
2018-03-21T08:11:10.037Z,95910.88
2018-03-21T08:13:43.382Z,95918.53
2018-03-21T09:01:48.489Z,95970.55
2018-03-21T09:04:21.765Z,95973.03
2018-03-21T09:06:55.018Z,95974.39
2018-03-21T09:09:28.312Z,95969.22
2018-03-21T09:12:01.573Z,95971.91
2018-03-21T09:14:35.607Z,95977.80
2018-03-21T10:02:43.109Z,95992.31
2018-03-21T10:05:16.361Z,95995.11
2018-03-21T10:07:49.637Z,95995.84
2018-03-21T10:10:22.884Z,95990.39
2018-03-21T10:12:56.165Z,96002.06
2018-03-21T11:04:01.682Z,95999.67
2018-03-21T11:06:34.929Z,96002.73
2018-03-21T11:09:08.967Z,96003.74
2018-03-21T11:11:42.285Z,96001.83
2018-03-21T11:14:15.526Z,96000.34
2018-03-21T12:02:22.657Z,95995.23
2018-03-21T12:04:55.930Z,95988.64
2018-03-21T12:07:29.202Z,95991.20
2018-03-21T12:10:02.465Z,95991.23
2018-03-21T12:12:36.482Z,95992.73
2018-03-21T13:03:16.201Z,95988.38
2018-03-21T13:05:49.478Z,95987.66
2018-03-21T13:08:22.726Z,95984.85
2018-03-21T13:10:56.004Z,95985.72
2018-03-21T13:13:29.263Z,95987.67
2018-03-21T14:01:35.046Z,95986.36
2018-03-21T14:04:08.288Z,95982.48
2018-03-21T14:06:41.562Z,95981.96
2018-03-21T14:09:14.838Z,95982.98
2018-03-21T14:11:48.094Z,95977.27
2018-03-21T14:14:21.353Z,95978.66
2018-03-21T15:02:25.922Z,95973.59
2018-03-21T15:04:59.160Z,95978.22
2018-03-21T15:07:32.453Z,95973.20
2018-03-21T15:10:05.756Z,95977.42
2018-03-21T15:12:38.981Z,95980.39
2018-03-21T15:47:03.067Z,95985.83
2018-03-21T15:49:36.313Z,95989.66
2018-03-21T15:52:10.353Z,95990.20
2018-03-21T15:54:43.635Z,95995.25
2018-03-21T15:57:16.872Z,95991.63
2018-03-21T15:59:50.136Z,96005.61
2018-03-21T16:31:40.861Z,96018.20
2018-03-21T16:34:14.874Z,96018.70
2018-03-21T16:36:48.948Z,96018.61
2018-03-21T16:39:22.211Z,96024.26
2018-03-21T16:41:55.473Z,96025.84
2018-03-21T16:44:29.490Z,96026.91
2018-03-21T16:47:03.532Z,96029.52
2018-03-21T16:49:36.777Z,96025.32
2018-03-21T16:52:10.059Z,96030.90
2018-03-21T16:54:43.313Z,96027.95
2018-03-21T16:57:16.589Z,96028.92
2018-03-21T16:59:50.598Z,96031.20
2018-03-21T17:02:23.877Z,96029.34
2018-03-21T17:04:57.898Z,96034.18
2018-03-21T17:07:31.929Z,96039.34
2018-03-21T17:10:05.231Z,96036.51
2018-03-21T17:12:38.505Z,96048.30
2018-03-21T17:15:11.762Z,96049.88
2018-03-21T17:17:45.042Z,96054.91
2018-03-21T17:20:18.291Z,96057.95
2018-03-21T17:22:52.338Z,96059.70
2018-03-21T17:25:25.586Z,96060.70
2018-03-21T17:27:59.636Z,96063.30
2018-03-21T17:30:32.877Z,96067.75
2018-03-21T17:33:06.921Z,96065.35
2018-03-21T17:35:40.182Z,96068.16
2018-03-21T17:38:14.301Z,96067.32
2018-03-21T17:40:47.573Z,96066.17
2018-03-21T17:43:20.852Z,96068.45
2018-03-21T17:45:54.127Z,96078.24
2018-03-21T17:48:27.369Z,96078.02
2018-03-21T17:51:00.653Z,96077.81
2018-03-21T17:53:33.892Z,96078.48
2018-03-21T17:56:07.266Z,96079.57
2018-03-21T17:58:40.543Z,96079.41
2018-03-21T18:01:13.791Z,96077.48
2018-03-21T18:03:47.064Z,96075.11
2018-03-21T18:06:20.360Z,96080.95
2018-03-21T18:08:54.361Z,96075.52
2018-03-21T18:11:28.387Z,96081.72
2018-03-21T18:14:01.667Z,96079.34
2018-03-21T18:16:34.949Z,96082.21
2018-03-21T18:19:08.196Z,96084.16
2018-03-21T18:21:41.463Z,96080.47
2018-03-21T18:24:14.709Z,96083.64
2018-03-21T18:26:47.986Z,96081.49
2018-03-21T18:29:21.232Z,96087.41
2018-03-21T18:31:54.505Z,96077.45
2018-03-21T18:34:27.766Z,96084.03
2018-03-21T18:37:01.059Z,96079.80
2018-03-21T18:39:34.335Z,96079.45
2018-03-21T18:42:07.606Z,96083.57
2018-03-21T18:44:40.860Z,96079.41
2018-03-21T18:47:14.133Z,96075.20
2018-03-21T18:49:47.382Z,96069.73
2018-03-21T18:52:20.652Z,96075.16
2018-03-21T18:54:53.936Z,96072.66
2018-03-21T18:57:27.191Z,96070.52
2018-03-21T19:00:00.463Z,96073.26
2018-03-21T19:02:33.883Z,96070.28
2018-03-21T19:05:07.173Z,96075.14
2018-03-21T19:07:40.561Z,96077.31
2018-03-21T19:10:13.823Z,96080.92
2018-03-21T19:12:47.859Z,96075.86
2018-03-21T19:15:21.112Z,96081.23
2018-03-21T19:17:54.402Z,96079.14
2018-03-21T19:20:27.657Z,96084.03
2018-03-21T19:23:00.937Z,96088.92
2018-03-21T19:25:34.186Z,96090.32
2018-03-21T19:28:07.466Z,96088.23
2018-03-21T19:30:40.742Z,96084.48
2018-03-21T19:33:14.991Z,96083.17
2018-03-21T19:35:48.269Z,96079.72
2018-03-21T19:38:21.523Z,96075.84
2018-03-21T19:40:54.809Z,96072.03
2018-03-21T19:43:28.050Z,96075.61
2018-03-21T19:46:01.338Z,96078.36
2018-03-21T19:48:34.590Z,96075.83
2018-03-21T19:51:07.874Z,96079.45
2018-03-21T19:53:41.125Z,96074.05
2018-03-21T19:56:14.397Z,96077.20
2018-03-21T19:58:47.642Z,96072.55
2018-03-21T20:01:21.691Z,96075.23
2018-03-21T20:03:54.974Z,96071.93
2018-03-21T20:06:28.223Z,96078.06
2018-03-21T20:09:01.508Z,96074.26
2018-03-21T20:11:34.762Z,96078.66
2018-03-21T20:14:08.032Z,96085.81
2018-03-21T20:16:42.053Z,96081.59
2018-03-21T20:19:15.326Z,96083.50
2018-03-21T20:21:49.351Z,96083.50
2018-03-21T20:24:23.395Z,96081.31
2018-03-21T20:26:56.654Z,96086.02
2018-03-21T20:29:30.706Z,96083.94
2018-03-21T20:32:03.974Z,96079.77
2018-03-21T20:34:37.245Z,96079.56
2018-03-21T20:37:11.273Z,96078.38
2018-03-21T20:39:44.554Z,96076.94
2018-03-21T20:42:17.806Z,96081.94
2018-03-21T20:44:51.072Z,96074.77
2018-03-21T20:47:24.321Z,96077.44
2018-03-21T20:49:57.618Z,96069.34
2018-03-21T20:52:30.877Z,96066.07
2018-03-21T20:55:04.976Z,96067.86
2018-03-21T20:57:38.225Z,96062.64
2018-03-21T21:00:12.271Z,96063.87
2018-03-21T21:02:45.552Z,96061.66
2018-03-21T21:05:18.816Z,96062.29
2018-03-21T21:07:52.102Z,96058.42
2018-03-21T21:10:25.350Z,96059.02
2018-03-21T21:12:58.630Z,96060.02
2018-03-21T21:15:31.886Z,96055.80
2018-03-21T21:18:05.157Z,96058.95
2018-03-21T21:20:38.424Z,96059.45
2018-03-21T21:23:11.698Z,96054.75
2018-03-21T21:25:44.961Z,96060.16
2018-03-21T21:28:18.238Z,96053.20
2018-03-21T21:30:51.532Z,96052.95
2018-03-21T21:33:24.790Z,96057.78
2018-03-21T21:35:58.065Z,96049.39
2018-03-21T21:38:31.365Z,96049.42
2018-03-21T21:41:04.638Z,96050.30
2018-03-21T21:43:37.930Z,96046.11
2018-03-21T21:46:11.177Z,96043.72
2018-03-21T21:48:44.465Z,96048.30
2018-03-21T21:51:17.775Z,96047.72
2018-03-21T21:53:51.022Z,96045.87
2018-03-21T21:56:25.075Z,96046.83
2018-03-21T21:58:58.330Z,96047.36
2018-03-21T22:01:32.385Z,96044.38
2018-03-21T22:04:05.643Z,96039.74
2018-03-21T22:06:38.948Z,96038.02
2018-03-21T22:09:12.261Z,96038.08
2018-03-21T22:11:45.493Z,96027.66
2018-03-21T22:14:18.752Z,96025.47
2018-03-21T22:16:52.033Z,96024.75
2018-03-21T22:19:25.294Z,96025.70
2018-03-21T22:21:58.592Z,96025.36
2018-03-21T22:24:32.608Z,96023.58
2018-03-21T22:27:06.672Z,96024.11
2018-03-21T22:29:39.953Z,96013.41
2018-03-21T22:32:13.201Z,96009.54
2018-03-21T22:34:47.248Z,96012.69
2018-03-21T22:37:20.520Z,96011.08
2018-03-21T22:39:53.801Z,96004.27
2018-03-21T22:42:27.850Z,95994.09
2018-03-21T22:45:01.127Z,95988.91
2018-03-21T22:47:34.401Z,95993.48
2018-03-21T22:50:08.453Z,95986.31
2018-03-21T22:52:41.742Z,95981.20
2018-03-21T22:55:15.068Z,95986.18
2018-03-21T22:57:48.320Z,95987.36
2018-03-21T23:00:21.597Z,95983.46
2018-03-21T23:02:55.618Z,95982.63
2018-03-21T23:05:28.900Z,95984.16
2018-03-21T23:08:02.197Z,95981.78
2018-03-21T23:10:36.225Z,95978.28
2018-03-21T23:13:09.526Z,95975.78
2018-03-21T23:15:42.769Z,95982.56
2018-03-21T23:18:16.065Z,95981.84
2018-03-21T23:20:49.329Z,95984.87
2018-03-21T23:23:22.597Z,95979.12
2018-03-21T23:25:55.879Z,95983.93
2018-03-21T23:28:29.121Z,95983.16
2018-03-21T23:31:02.406Z,95980.37
2018-03-21T23:33:35.673Z,95979.17
2018-03-21T23:36:08.952Z,95979.06
2018-03-21T23:38:42.261Z,95974.78
2018-03-21T23:41:15.606Z,95977.09
2018-03-21T23:43:48.854Z,95975.54
2018-03-21T23:46:22.139Z,95976.48
2018-03-21T23:48:55.401Z,95968.78
2018-03-21T23:51:29.454Z,95969.83
2018-03-21T23:54:02.725Z,95967.64
2018-03-21T23:56:36.787Z,95969.59
2018-03-21T23:59:10.049Z,95970.55
